Time;durP1;ratioP1;P1;durP2;ratioP2;P2;SDS_P1;SDS_P2;PMS_P1;PMS_P2;Temp;Humidity;BMP_temperature;BMP_pressure;BME280_temperature;BME280_humidity;BME280_pressure;Samples;Min_cycle;Max_cycle;Signal;HPM_P1;HPM_P2
2022/04/24 00:02:23;;;;;;;14.20;12.90;;;13.70;68.10;;;;;;5120221;28;20179;-87
2022/04/24 00:04:50;;;;;;;13.57;12.37;;;13.70;67.80;;;;;;5103888;28;20207;-87
2022/04/24 00:07:16;;;;;;;13.73;12.43;;;13.60;68.60;;;;;;5099889;28;20185;-87
2022/04/24 00:09:41;;;;;;;13.67;12.57;;;13.60;68.30;;;;;;5080835;28;20209;-87
2022/04/24 00:12:09;;;;;;;13.40;12.23;;;13.70;68.10;;;;;;5086168;28;20188;-85
2022/04/24 00:14:35;;;;;;;13.20;12.10;;;13.70;67.60;;;;;;5079889;28;20221;-86
2022/04/24 00:17:01;;;;;;;13.43;12.30;;;13.60;67.80;;;;;;5097576;28;20192;-86
2022/04/24 00:19:27;;;;;;;13.37;12.07;;;13.70;67.70;;;;;;5098698;28;20188;-86
2022/04/24 00:21:55;;;;;;;13.00;11.97;;;13.80;67.40;;;;;;5098585;28;20209;-86
2022/04/24 00:24:24;;;;;;;12.47;11.47;;;13.80;66.90;;;;;;5104174;28;20199;-87
2022/04/24 00:26:50;;;;;;;12.93;11.73;;;13.90;66.80;;;;;;5109374;28;20205;-86
2022/04/24 00:29:16;;;;;;;12.70;11.70;;;14.00;66.30;;;;;;5097832;28;20220;-86
2022/04/24 00:31:41;;;;;;;12.73;11.63;;;14.00;66.20;;;;;;5068250;28;20217;-86
2022/04/24 00:34:07;;;;;;;12.70;11.70;;;13.90;66.30;;;;;;5083973;28;20182;-86
2022/04/24 00:36:33;;;;;;;12.83;11.83;;;13.80;66.70;;;;;;5074186;28;20195;-85
2022/04/24 00:38:58;;;;;;;13.20;11.97;;;13.80;67.10;;;;;;5084319;28;20206;-86
2022/04/24 00:41:24;;;;;;;13.30;12.20;;;13.70;67.70;;;;;;5089285;28;20184;-85
2022/04/24 00:43:54;;;;;;;13.57;12.33;;;13.60;68.00;;;;;;5099871;28;20218;-86
2022/04/24 00:46:42;;;;;;;12.47;11.47;;;13.60;68.90;;;;;;5095552;28;20270;-86
2022/04/24 00:49:10;;;;;;;12.20;11.17;;;13.50;68.90;;;;;;5075745;28;20741;-86
2022/04/24 00:51:40;;;;;;;13.63;12.53;;;13.60;69.10;;;;;;5088702;28;20203;-86
2022/04/24 00:54:07;;;;;;;11.97;10.97;;;13.50;68.90;;;;;;5081081;28;20193;-86
2022/04/24 00:56:37;;;;;;;13.80;12.70;;;13.50;68.60;;;;;;5097481;28;20192;-86
2022/04/24 00:59:05;;;;;;;12.73;11.63;;;13.60;68.40;;;;;;5067199;28;20249;-87
2022/04/24 01:01:32;;;;;;;12.93;11.83;;;13.50;68.40;;;;;;5085069;28;20190;-86
2022/04/24 01:04:03;;;;;;;12.37;10.67;;;13.60;68.40;;;;;;5085076;28;20190;-86
2022/04/24 01:06:32;;;;;;;13.03;11.93;;;13.60;68.20;;;;;;5075692;28;20205;-86
2022/04/24 01:09:21;;;;;;;12.30;11.30;;;13.60;67.90;;;;;;5092685;28;20281;-85
2022/04/24 01:11:52;;;;;;;12.43;11.37;;;13.60;68.00;;;;;;5085097;28;20180;-87
2022/04/24 01:14:19;;;;;;;12.10;11.00;;;13.60;68.00;;;;;;5093081;28;20192;-85
2022/04/24 01:16:46;;;;;;;12.27;11.17;;;13.60;67.90;;;;;;5097056;28;20187;-85
2022/04/24 01:19:13;;;;;;;12.53;11.43;;;13.60;68.00;;;;;;5106143;28;20798;-86
2022/04/24 01:21:42;;;;;;;12.30;11.20;;;13.70;67.90;;;;;;5072896;28;20214;-85
2022/04/24 01:24:09;;;;;;;12.47;11.37;;;13.70;67.60;;;;;;5075369;28;20193;-86
2022/04/24 01:26:35;;;;;;;11.80;10.80;;;13.60;67.60;;;;;;5064342;28;20210;-86
2022/04/24 01:29:02;;;;;;;11.53;10.57;;;13.70;67.80;;;;;;5075150;28;20665;-86
2022/04/24 01:31:28;;;;;;;12.07;11.17;;;13.80;67.10;;;;;;5075200;28;20175;-87
2022/04/24 01:33:54;;;;;;;13.13;11.93;;;13.70;67.30;;;;;;5074288;28;20566;-85
2022/04/24 01:36:20;;;;;;;12.60;11.60;;;13.70;67.20;;;;;;5085720;28;20207;-85
2022/04/24 01:38:45;;;;;;;12.23;11.23;;;13.80;67.10;;;;;;5082411;28;20396;-86
2022/04/24 01:41:11;;;;;;;9.93;9.13;;;13.80;67.00;;;;;;5103535;28;20187;-86
2022/04/24 01:43:37;;;;;;;12.03;11.03;;;13.90;67.00;;;;;;5070982;28;20223;-85
2022/04/24 01:46:06;;;;;;;12.27;11.27;;;14.00;66.50;;;;;;5080113;28;20246;-85
2022/04/24 01:48:35;;;;;;;11.93;10.93;;;14.00;65.60;;;;;;5087344;28;20268;-84
2022/04/24 01:51:02;;;;;;;11.20;10.30;;;14.00;65.90;;;;;;5084801;28;20191;-87
2022/04/24 01:53:28;;;;;;;11.30;10.40;;;14.10;65.90;;;;;;5072469;28;20186;-85
2022/04/24 01:55:57;;;;;;;11.40;10.50;;;14.20;65.50;;;;;;5083836;28;20218;-86
2022/04/24 01:58:23;;;;;;;10.83;9.93;;;14.20;65.10;;;;;;5088679;28;20190;-86
2022/04/24 02:00:48;;;;;;;10.90;10.00;;;14.30;64.80;;;;;;5085625;28;20690;-86
2022/04/24 02:03:14;;;;;;;10.47;9.67;;;14.30;64.90;;;;;;5083140;28;20194;-86
2022/04/24 02:05:40;;;;;;;11.93;10.97;;;14.50;64.70;;;;;;5081550;28;20244;-85
2022/04/24 02:08:05;;;;;;;11.53;10.63;;;14.50;64.20;;;;;;5087518;28;20202;-85
2022/04/24 02:10:32;;;;;;;11.57;10.57;;;14.50;64.90;;;;;;5080373;28;20221;-85
2022/04/24 02:12:58;;;;;;;12.00;11.10;;;14.40;65.00;;;;;;5082497;28;20206;-85
2022/04/24 02:15:24;;;;;;;11.70;10.77;;;14.30;66.70;;;;;;5072213;28;20758;-85
2022/04/24 02:17:49;;;;;;;11.70;10.80;;;14.40;67.10;;;;;;5083922;28;20689;-85
2022/04/24 02:20:15;;;;;;;12.00;11.00;;;14.30;67.10;;;;;;5077700;28;20233;-85
2022/04/24 02:22:41;;;;;;;12.07;11.10;;;14.30;67.70;;;;;;5079370;28;20199;-85
2022/04/24 02:25:07;;;;;;;11.47;10.40;;;14.30;67.90;;;;;;5083147;28;20210;-85
2022/04/24 02:27:34;;;;;;;11.77;10.87;;;14.20;67.50;;;;;;5083098;28;20677;-85
2022/04/24 02:30:00;;;;;;;11.13;10.13;;;14.10;70.00;;;;;;5086480;28;20202;-85
2022/04/24 02:32:25;;;;;;;10.97;10.07;;;14.00;71.20;;;;;;5079188;28;20859;-87
2022/04/24 02:34:51;;;;;;;11.90;10.90;;;13.90;71.30;;;;;;5078753;28;20210;-85
2022/04/24 02:37:17;;;;;;;11.40;10.30;;;13.90;72.20;;;;;;5094118;28;20553;-85
2022/04/24 02:39:43;;;;;;;11.40;10.50;;;13.80;72.40;;;;;;5090590;28;20553;-87
2022/04/24 02:42:09;;;;;;;11.87;10.87;;;13.70;72.40;;;;;;5065986;28;20664;-85
2022/04/24 02:44:35;;;;;;;11.57;10.53;;;13.70;70.70;;;;;;5083398;28;20215;-84
2022/04/24 02:47:01;;;;;;;11.33;10.40;;;13.70;71.20;;;;;;5081929;28;20212;-87
2022/04/24 02:49:27;;;;;;;10.70;9.80;;;13.80;70.70;;;;;;5071443;28;20218;-84
2022/04/24 02:51:52;;;;;;;11.67;10.67;;;13.80;70.30;;;;;;5076361;28;20194;-84
2022/04/24 02:54:18;;;;;;;11.77;10.77;;;13.70;71.70;;;;;;5082695;28;20244;-87
2022/04/24 02:56:44;;;;;;;11.93;11.03;;;13.50;73.60;;;;;;5073501;28;20194;-85
2022/04/24 02:59:11;;;;;;;11.57;10.67;;;13.60;73.20;;;;;;5084095;28;20246;-85
2022/04/24 03:01:38;;;;;;;12.37;11.37;;;13.60;73.50;;;;;;5086768;28;20191;-85
2022/04/24 03:04:05;;;;;;;11.30;10.50;;;13.60;72.00;;;;;;5091255;28;20186;-85
2022/04/24 03:06:30;;;;;;;11.97;10.80;;;13.70;71.20;;;;;;5089080;28;20667;-86
2022/04/24 03:08:56;;;;;;;12.33;11.27;;;13.70;71.40;;;;;;5092228;28;20216;-85
2022/04/24 03:11:22;;;;;;;12.60;11.57;;;13.70;71.80;;;;;;5093192;28;20747;-85
2022/04/24 03:13:47;;;;;;;12.43;11.43;;;13.70;72.70;;;;;;5085681;28;20196;-86
2022/04/24 03:16:13;;;;;;;12.60;11.47;;;13.60;72.60;;;;;;5092182;28;20714;-84
2022/04/24 03:18:39;;;;;;;12.77;11.67;;;13.60;72.40;;;;;;5091478;28;20215;-85
2022/04/24 03:21:04;;;;;;;12.70;11.70;;;13.70;73.30;;;;;;5090392;28;20193;-87
2022/04/24 03:23:30;;;;;;;12.70;11.73;;;13.60;73.90;;;;;;5094358;28;20184;-84
2022/04/24 03:25:56;;;;;;;13.20;12.10;;;13.50;76.10;;;;;;5092595;28;20276;-85
2022/04/24 03:28:22;;;;;;;11.47;10.47;;;13.50;77.20;;;;;;5094502;28;20196;-85
2022/04/24 03:30:47;;;;;;;11.73;10.83;;;13.50;77.50;;;;;;5069837;28;20201;-85
2022/04/24 03:33:13;;;;;;;11.60;10.63;;;13.50;77.00;;;;;;5102252;28;20188;-85
2022/04/24 03:35:39;;;;;;;11.70;10.60;;;13.50;77.50;;;;;;5093806;28;20251;-86
2022/04/24 03:38:06;;;;;;;10.87;9.97;;;13.50;77.70;;;;;;5092945;28;20191;-86
2022/04/24 03:40:31;;;;;;;12.83;11.73;;;13.60;76.30;;;;;;5077973;28;20738;-86
2022/04/24 03:42:57;;;;;;;12.03;11.13;;;13.70;77.10;;;;;;5088143;28;20193;-86
2022/04/24 03:45:23;;;;;;;12.10;11.17;;;13.50;76.40;;;;;;5068970;28;20780;-86
2022/04/24 03:47:48;;;;;;;12.60;11.60;;;13.30;78.70;;;;;;5073960;28;20217;-86
2022/04/24 03:50:14;;;;;;;13.33;12.30;;;13.30;78.80;;;;;;5088518;28;20220;-86
2022/04/24 03:52:40;;;;;;;13.17;12.17;;;12.90;79.50;;;;;;5089550;28;20274;-86
2022/04/24 03:55:07;;;;;;;12.67;11.57;;;12.90;78.00;;;;;;5088728;28;20268;-86
2022/04/24 03:57:33;;;;;;;13.90;12.70;;;13.00;79.00;;;;;;5088428;28;20217;-86
2022/04/24 03:59:59;;;;;;;14.20;13.07;;;13.20;79.00;;;;;;5071860;28;20191;-86
2022/04/24 04:02:25;;;;;;;16.63;15.17;;;13.00;77.80;;;;;;5068013;28;20191;-85
2022/04/24 04:04:51;;;;;;;15.90;14.53;;;12.90;79.40;;;;;;5077428;28;20833;-86
2022/04/24 04:07:16;;;;;;;15.67;14.37;;;12.80;80.00;;;;;;5087268;28;20277;-86
2022/04/24 04:09:42;;;;;;;16.97;15.60;;;12.70;81.90;;;;;;5082345;28;20241;-86
2022/04/24 04:12:08;;;;;;;16.83;15.23;;;12.60;81.90;;;;;;5084323;28;20213;-86
2022/04/24 04:14:34;;;;;;;17.10;15.47;;;12.50;83.70;;;;;;5085389;28;20252;-86
2022/04/24 04:17:00;;;;;;;16.10;14.70;;;12.40;84.50;;;;;;5101013;28;20191;-85
2022/04/24 04:19:25;;;;;;;16.60;15.23;;;12.20;87.00;;;;;;5103676;28;20604;-85
2022/04/24 04:21:51;;;;;;;16.77;15.27;;;12.10;87.70;;;;;;5096199;28;20205;-85
2022/04/24 04:24:17;;;;;;;17.67;15.60;;;12.10;88.00;;;;;;5076804;28;20192;-86
2022/04/24 04:26:42;;;;;;;18.50;16.80;;;12.00;90.30;;;;;;5090189;28;20254;-85
2022/04/24 04:29:09;;;;;;;17.57;15.97;;;11.80;92.70;;;;;;5083778;28;20211;-85
2022/04/24 04:31:34;;;;;;;19.57;17.77;;;11.80;94.10;;;;;;5107038;28;20186;-86
2022/04/24 04:34:00;;;;;;;19.33;17.60;;;11.70;96.90;;;;;;5103927;28;20968;-86
2022/04/24 04:36:26;;;;;;;19.53;17.80;;;11.70;99.60;;;;;;5076195;28;20798;-86
2022/04/24 04:38:52;;;;;;;19.43;17.73;;;11.70;99.90;;;;;;5088892;28;20650;-85
2022/04/24 04:41:17;;;;;;;19.63;17.73;;;11.70;99.90;;;;;;5090139;28;20190;-86
2022/04/24 04:43:43;;;;;;;18.30;16.70;;;11.70;99.70;;;;;;5082482;28;20232;-86
2022/04/24 04:46:08;;;;;;;19.17;17.47;;;11.60;99.90;;;;;;5088077;28;20574;-86
2022/04/24 04:48:34;;;;;;;18.60;16.90;;;11.60;99.90;;;;;;5085930;28;20214;-86
2022/04/24 04:51:00;;;;;;;18.07;16.47;;;11.60;99.90;;;;;;5090630;28;20198;-86
2022/04/24 04:53:26;;;;;;;17.17;15.47;;;11.70;99.90;;;;;;5081386;28;20672;-85
2022/04/24 04:55:51;;;;;;;17.60;15.90;;;11.70;99.90;;;;;;5083940;28;20214;-86
2022/04/24 04:58:17;;;;;;;17.77;16.17;;;11.70;99.90;;;;;;5082282;28;20679;-86
2022/04/24 05:00:43;;;;;;;18.30;16.70;;;11.70;99.90;;;;;;5084931;28;20704;-86
2022/04/24 05:03:08;;;;;;;19.47;17.77;;;11.70;99.90;;;;;;5083562;28;20175;-86
2022/04/24 05:05:35;;;;;;;19.00;16.97;;;11.60;99.90;;;;;;5084848;28;20288;-85
2022/04/24 05:08:01;;;;;;;18.00;16.20;;;11.60;99.90;;;;;;5065986;28;20678;-86
2022/04/24 05:10:26;;;;;;;18.43;16.73;;;11.60;99.90;;;;;;5080205;28;20739;-85
2022/04/24 05:12:52;;;;;;;18.07;16.37;;;11.50;99.90;;;;;;5066729;28;20205;-86
2022/04/24 05:15:19;;;;;;;17.77;15.53;;;11.50;99.90;;;;;;5084172;28;20200;-86
2022/04/24 05:17:45;;;;;;;16.30;14.70;;;11.50;99.90;;;;;;5073367;28;20187;-86
2022/04/24 05:20:12;;;;;;;13.73;12.53;;;11.40;99.90;;;;;;5084516;28;20248;-86
2022/04/24 05:22:39;;;;;;;13.43;12.13;;;11.30;99.90;;;;;;5077110;28;20241;-86
2022/04/24 05:25:06;;;;;;;10.60;9.70;;;11.20;99.90;;;;;;5078986;28;20213;-86
2022/04/24 05:27:33;;;;;;;9.33;8.40;;;11.10;99.90;;;;;;5091026;28;20186;-86
2022/04/24 05:29:58;;;;;;;11.07;10.07;;;11.00;99.90;;;;;;5084822;28;20732;-86
2022/04/24 05:32:24;;;;;;;11.13;10.10;;;11.00;99.90;;;;;;5092983;28;20271;-86
2022/04/24 05:34:50;;;;;;;10.97;9.97;;;11.00;99.90;;;;;;5062432;28;20206;-86
2022/04/24 05:37:15;;;;;;;11.00;9.90;;;11.10;99.90;;;;;;5091897;28;20657;-86
2022/04/24 05:39:41;;;;;;;10.57;9.60;;;11.10;99.90;;;;;;5090364;28;20226;-86
2022/04/24 05:42:07;;;;;;;12.30;10.27;;;11.10;99.90;;;;;;5081569;28;20187;-86
2022/04/24 05:44:32;;;;;;;9.07;8.27;;;11.00;99.90;;;;;;5070979;28;20214;-86
2022/04/24 05:46:59;;;;;;;6.37;5.73;;;10.90;99.90;;;;;;5083716;28;20214;-86
2022/04/24 05:49:25;;;;;;;3.30;2.87;;;11.00;99.90;;;;;;5094268;28;20195;-86
2022/04/24 05:51:51;;;;;;;2.40;2.20;;;11.00;99.90;;;;;;5055453;28;20673;-86
2022/04/24 05:54:16;;;;;;;1.80;1.70;;;10.80;99.90;;;;;;5082585;28;20198;-86
2022/04/24 05:56:42;;;;;;;4.60;2.40;;;10.80;99.90;;;;;;5080724;28;20718;-86
2022/04/24 05:59:11;;;;;;;2.13;1.90;;;10.80;99.90;;;;;;5070619;28;20195;-86
2022/04/24 06:01:36;;;;;;;2.10;1.70;;;10.70;99.90;;;;;;5078956;28;20191;-86
2022/04/24 06:04:02;;;;;;;2.07;1.90;;;10.70;99.90;;;;;;5076989;28;20275;-85
2022/04/24 06:06:30;;;;;;;1.67;1.57;;;10.70;99.90;;;;;;5084471;28;20213;-85
2022/04/24 06:08:57;;;;;;;1.70;1.60;;;10.70;99.90;;;;;;5093401;28;20190;-85
2022/04/24 06:11:22;;;;;;;2.17;1.60;;;10.70;99.90;;;;;;5093037;28;20170;-85
2022/04/24 06:13:48;;;;;;;2.90;1.90;;;10.70;99.90;;;;;;5081275;28;20218;-85
2022/04/24 06:16:14;;;;;;;2.27;1.57;;;10.80;99.90;;;;;;5075749;28;20229;-84
2022/04/24 06:18:39;;;;;;;3.53;1.80;;;10.80;99.90;;;;;;5075469;28;20191;-85
2022/04/24 06:21:05;;;;;;;1.40;1.30;;;10.80;99.90;;;;;;5082096;28;20530;-85
2022/04/24 06:23:31;;;;;;;2.87;1.70;;;10.70;99.90;;;;;;5092526;28;20217;-86
2022/04/24 06:25:58;;;;;;;1.50;1.40;;;10.70;99.90;;;;;;5112502;28;20202;-86
2022/04/24 06:28:24;;;;;;;1.47;1.37;;;10.70;99.90;;;;;;5118103;28;20179;-86
2022/04/24 06:30:50;;;;;;;1.47;1.37;;;10.80;99.90;;;;;;5116280;28;20199;-86
2022/04/24 06:33:17;;;;;;;1.47;1.37;;;10.80;99.90;;;;;;5099007;28;20752;-86
2022/04/24 06:35:45;;;;;;;1.37;1.20;;;10.80;99.90;;;;;;5080631;28;20650;-86
2022/04/24 06:38:11;;;;;;;1.67;1.40;;;10.60;99.90;;;;;;5081917;28;20186;-86
2022/04/24 06:40:37;;;;;;;1.77;1.50;;;10.70;99.90;;;;;;5099887;28;20191;-86
2022/04/24 06:43:05;;;;;;;2.40;1.73;;;10.70;99.90;;;;;;5096001;28;20183;-86
2022/04/24 06:45:42;;;;;;;4.37;1.30;;;10.80;99.90;;;;;;5101039;28;20186;-86
2022/04/24 06:48:17;;;;;;;2.40;1.63;;;10.80;99.90;;;;;;5078008;28;20186;-86
2022/04/24 06:50:45;;;;;;;1.70;1.20;;;10.80;99.90;;;;;;5099591;28;20193;-87
2022/04/24 06:53:18;;;;;;;2.00;1.50;;;10.80;99.90;;;;;;5100308;28;20175;-87
2022/04/24 06:55:45;;;;;;;1.50;1.40;;;10.80;99.90;;;;;;5100211;28;20233;-87
2022/04/24 06:58:13;;;;;;;1.40;1.30;;;10.90;99.90;;;;;;5098362;28;20171;-87
2022/04/24 07:00:41;;;;;;;1.67;1.43;;;10.90;99.90;;;;;;5078510;28;20176;-87
2022/04/24 07:03:11;;;;;;;1.27;1.20;;;10.90;99.90;;;;;;5098067;28;20194;-87
2022/04/24 07:05:37;;;;;;;1.33;1.23;;;10.90;99.90;;;;;;5099258;28;20230;-87
2022/04/24 07:08:03;;;;;;;2.00;1.90;;;10.80;99.90;;;;;;5099576;28;20202;-87
2022/04/24 07:10:28;;;;;;;2.47;2.00;;;10.80;99.90;;;;;;5081439;28;20627;-87
2022/04/24 07:12:54;;;;;;;1.90;1.67;;;10.90;99.90;;;;;;5081312;28;20205;-87
2022/04/24 07:15:22;;;;;;;4.23;2.00;;;10.90;99.90;;;;;;5098306;28;20196;-87
2022/04/24 07:17:49;;;;;;;2.00;1.77;;;10.80;99.90;;;;;;5098771;28;20584;-87
2022/04/24 07:20:17;;;;;;;2.37;2.17;;;10.80;99.90;;;;;;5098668;28;20197;-86
2022/04/24 07:22:46;;;;;;;1.83;1.70;;;10.70;99.90;;;;;;5083759;28;20184;-86
2022/04/24 07:25:14;;;;;;;2.40;2.10;;;10.80;99.90;;;;;;5080167;28;20230;-87
2022/04/24 07:27:40;;;;;;;2.60;1.90;;;10.70;99.90;;;;;;5078695;28;20271;-87
2022/04/24 07:30:13;;;;;;;2.90;1.90;;;10.70;99.90;;;;;;5089750;28;20367;-87
2022/04/24 07:32:44;;;;;;;2.10;1.90;;;10.80;99.90;;;;;;5060950;28;20230;-87
2022/04/24 07:35:15;;;;;;;5.20;1.80;;;10.80;99.90;;;;;;5095852;28;20276;-86
2022/04/24 07:37:41;;;;;;;3.30;2.00;;;10.80;99.90;;;;;;5082859;28;20189;-87
2022/04/24 07:40:09;;;;;;;2.67;1.70;;;10.60;99.90;;;;;;5088423;28;20183;-86
2022/04/24 07:42:49;;;;;;;2.23;2.00;;;10.70;99.90;;;;;;5083182;28;20225;-86
2022/04/24 07:45:19;;;;;;;2.17;1.97;;;10.70;99.90;;;;;;5097849;28;20268;-88
2022/04/24 07:47:46;;;;;;;2.00;1.90;;;10.80;99.90;;;;;;5094432;28;20283;-88
2022/04/24 07:50:12;;;;;;;2.50;1.97;;;10.80;99.90;;;;;;5078039;28;20226;-88
2022/04/24 07:52:38;;;;;;;2.53;1.90;;;10.90;99.90;;;;;;5093635;28;20375;-88
2022/04/24 07:55:04;;;;;;;1.73;1.63;;;10.90;99.90;;;;;;5086751;28;20828;-88
2022/04/24 07:57:30;;;;;;;2.63;1.80;;;11.00;99.90;;;;;;5080202;28;20206;-88
2022/04/24 07:59:55;;;;;;;1.90;1.80;;;11.00;99.90;;;;;;5076305;28;20266;-88
2022/04/24 08:02:21;;;;;;;1.90;1.70;;;10.80;99.90;;;;;;5075644;28;20468;-86
2022/04/24 08:04:47;;;;;;;4.37;1.90;;;10.90;99.90;;;;;;5075252;28;21014;-87
2022/04/24 08:07:15;;;;;;;3.13;1.90;;;11.00;99.90;;;;;;5072064;28;20224;-87
2022/04/24 08:09:42;;;;;;;1.90;1.80;;;11.10;99.90;;;;;;5078593;28;20210;-87
2022/04/24 08:12:08;;;;;;;2.60;1.90;;;11.00;99.90;;;;;;5087509;28;20224;-87
2022/04/24 08:14:33;;;;;;;2.20;1.87;;;10.90;99.90;;;;;;5096773;28;20241;-87
2022/04/24 08:16:59;;;;;;;2.70;2.40;;;11.00;99.90;;;;;;5100886;28;20183;-87
2022/04/24 08:19:25;;;;;;;2.53;2.33;;;10.90;99.90;;;;;;5095171;28;20195;-87
2022/04/24 08:21:50;;;;;;;3.43;2.27;;;10.80;99.90;;;;;;5089255;28;20902;-87
2022/04/24 08:24:16;;;;;;;2.03;1.70;;;10.80;99.90;;;;;;5099966;28;20195;-87
2022/04/24 08:26:42;;;;;;;3.33;1.80;;;10.90;99.90;;;;;;5105732;28;20195;-87
2022/04/24 08:29:08;;;;;;;2.20;1.70;;;10.80;99.90;;;;;;5084220;28;20229;-87
2022/04/24 08:31:33;;;;;;;1.50;1.40;;;10.70;99.90;;;;;;5087965;28;20243;-87
2022/04/24 08:33:59;;;;;;;3.00;1.60;;;10.60;99.90;;;;;;5105406;28;20179;-87
2022/04/24 08:36:25;;;;;;;1.77;1.37;;;10.50;99.90;;;;;;5105675;28;20195;-87
2022/04/24 08:38:50;;;;;;;1.67;1.57;;;10.50;99.90;;;;;;5097342;28;20183;-86
2022/04/24 08:41:21;;;;;;;1.53;1.43;;;10.50;99.90;;;;;;5092315;28;20187;-86
2022/04/24 08:43:47;;;;;;;1.60;1.50;;;10.50;99.90;;;;;;5110442;28;20247;-86
2022/04/24 08:46:13;;;;;;;1.60;1.50;;;10.50;99.90;;;;;;5104853;28;20210;-85
2022/04/24 08:48:41;;;;;;;2.03;1.83;;;10.60;99.90;;;;;;5097195;28;20645;-86
2022/04/24 08:51:09;;;;;;;1.87;1.67;;;10.50;99.90;;;;;;5083122;28;20238;-86
2022/04/24 08:53:35;;;;;;;2.10;1.77;;;10.60;99.90;;;;;;5089158;28;20182;-86
2022/04/24 08:56:02;;;;;;;2.73;1.60;;;10.50;99.90;;;;;;5103293;28;20273;-87
2022/04/24 08:58:28;;;;;;;1.83;1.63;;;10.50;99.90;;;;;;5095066;28;20191;-85
2022/04/24 09:00:53;;;;;;;1.60;1.50;;;10.60;99.90;;;;;;5085380;28;20176;-86
2022/04/24 09:03:19;;;;;;;2.70;1.33;;;10.60;99.90;;;;;;5094038;28;20210;-86
2022/04/24 09:05:45;;;;;;;1.37;1.37;;;10.50;99.90;;;;;;5086574;28;20210;-86
2022/04/24 09:08:12;;;;;;;1.40;1.30;;;10.50;99.90;;;;;;5084334;28;20191;-86
2022/04/24 09:10:55;;;;;;;1.70;1.60;;;10.60;99.90;;;;;;5091887;28;20232;-86
2022/04/24 09:13:25;;;;;;;4.20;1.60;;;10.70;99.90;;;;;;5106592;28;20178;-86
2022/04/24 09:15:58;;;;;;;1.83;1.73;;;10.70;99.90;;;;;;5104225;28;20187;-87
2022/04/24 09:18:36;;;;;;;4.57;4.27;;;10.70;99.90;;;;;;5099870;28;20841;-86
2022/04/24 09:21:02;;;;;;;3.30;2.37;;;10.70;99.90;;;;;;5083654;28;20234;-86
2022/04/24 09:23:38;;;;;;;4.00;3.70;;;10.60;99.90;;;;;;5085405;28;20302;-87
2022/04/24 09:26:04;;;;;;;2.63;1.73;;;10.60;99.90;;;;;;5086249;28;20262;-86
2022/04/24 09:28:38;;;;;;;6.90;5.80;;;10.50;99.90;;;;;;5081605;28;20194;-87
2022/04/24 09:31:04;;;;;;;7.53;5.53;;;10.60;99.90;;;;;;5088216;28;20199;-86
2022/04/24 09:33:42;;;;;;;6.80;6.17;;;10.70;99.90;;;;;;5086458;28;20179;-86
2022/04/24 09:36:08;;;;;;;2.40;2.20;;;10.80;99.90;;;;;;5100544;28;20198;-87
2022/04/24 09:38:45;;;;;;;1.93;1.83;;;10.80;99.90;;;;;;5083805;28;20274;-86
2022/04/24 09:41:22;;;;;;;2.83;2.53;;;10.70;99.90;;;;;;5079464;28;20554;-86
2022/04/24 09:43:49;;;;;;;7.80;6.53;;;10.60;99.90;;;;;;5095647;28;20190;-86
2022/04/24 09:46:28;;;;;;;3.47;2.30;;;10.50;99.90;;;;;;5101108;28;20274;-86
2022/04/24 09:48:58;;;;;;;2.60;1.60;;;10.50;99.90;;;;;;5099129;28;20196;-86
2022/04/24 09:51:24;;;;;;;1.73;1.63;;;10.40;99.90;;;;;;5098125;28;20171;-86
2022/04/24 09:53:52;;;;;;;2.17;1.80;;;10.40;99.90;;;;;;5092420;28;20202;-86
2022/04/24 09:56:19;;;;;;;1.80;1.70;;;10.30;99.90;;;;;;5081246;28;20207;-85
2022/04/24 09:58:46;;;;;;;1.70;1.60;;;10.30;99.90;;;;;;5085027;28;20195;-86
2022/04/24 10:01:13;;;;;;;1.63;1.50;;;10.30;99.90;;;;;;5082616;28;20197;-86
2022/04/24 10:03:39;;;;;;;1.73;1.47;;;10.20;99.90;;;;;;5083421;28;20222;-85
2022/04/24 10:06:07;;;;;;;2.40;1.70;;;10.10;99.90;;;;;;5110116;28;20210;-85
2022/04/24 10:08:35;;;;;;;1.40;1.30;;;10.20;99.90;;;;;;5121400;27;20166;-85
2022/04/24 10:11:04;;;;;;;1.77;1.67;;;10.30;99.90;;;;;;5133343;27;20221;-85
2022/04/24 10:13:31;;;;;;;1.53;1.43;;;10.20;99.90;;;;;;5099689;28;20337;-85
2022/04/24 10:16:16;;;;;;;1.80;1.70;;;10.20;99.90;;;;;;5102416;28;20207;-86
2022/04/24 10:18:51;;;;;;;2.00;1.67;;;10.20;99.90;;;;;;5100983;28;20602;-85
2022/04/24 10:21:21;;;;;;;1.70;1.60;;;10.30;99.90;;;;;;5083369;28;20195;-85
2022/04/24 10:23:47;;;;;;;2.67;1.30;;;10.30;99.90;;;;;;5103591;28;20198;-86
2022/04/24 10:26:21;;;;;;;1.50;1.33;;;10.40;99.90;;;;;;5102838;28;20202;-86
2022/04/24 10:28:47;;;;;;;1.43;1.33;;;10.20;99.90;;;;;;5100978;28;20163;-86
2022/04/24 10:31:15;;;;;;;5.07;1.70;;;10.20;99.90;;;;;;5081520;28;20183;-83
2022/04/24 10:33:52;;;;;;;1.80;1.70;;;10.20;99.90;;;;;;5101377;28;20230;-86
2022/04/24 10:36:18;;;;;;;1.73;1.63;;;10.30;99.90;;;;;;5098119;28;20206;-86
2022/04/24 10:38:53;;;;;;;1.43;1.37;;;10.40;99.90;;;;;;5088974;28;20187;-84
2022/04/24 10:41:22;;;;;;;1.60;1.50;;;10.50;99.90;;;;;;5092385;28;20224;-86
2022/04/24 10:43:49;;;;;;;1.43;1.33;;;10.40;99.90;;;;;;5096947;28;20246;-86
2022/04/24 10:46:19;;;;;;;2.33;1.70;;;10.30;99.90;;;;;;5070658;28;20202;-86
2022/04/24 10:48:46;;;;;;;1.70;1.60;;;10.30;99.90;;;;;;5077825;28;20172;-86
2022/04/24 10:51:12;;;;;;;1.60;1.50;;;10.40;99.90;;;;;;5092399;28;20206;-83
2022/04/24 10:53:52;;;;;;;1.83;1.47;;;10.60;99.90;;;;;;5102070;28;20202;-83
2022/04/24 10:56:19;;;;;;;1.77;1.67;;;10.60;99.90;;;;;;5082926;28;20632;-84
2022/04/24 10:58:44;;;;;;;1.37;1.33;;;10.50;99.90;;;;;;5081126;28;20179;-84
2022/04/24 11:01:14;;;;;;;1.60;1.50;;;10.50;99.90;;;;;;5098548;28;20198;-84
2022/04/24 11:03:41;;;;;;;2.90;1.37;;;10.50;99.90;;;;;;5100392;28;20213;-84
2022/04/24 11:06:23;;;;;;;1.30;1.20;;;10.40;99.90;;;;;;5091752;28;20566;-84
2022/04/24 11:08:52;;;;;;;1.40;1.30;;;10.50;99.90;;;;;;5100987;28;20187;-85
2022/04/24 11:11:19;;;;;;;3.37;1.43;;;10.50;99.90;;;;;;5107162;28;20198;-84
2022/04/24 11:13:45;;;;;;;1.30;1.20;;;10.60;99.90;;;;;;5108047;28;20216;-84
2022/04/24 11:16:12;;;;;;;2.17;1.50;;;10.60;99.90;;;;;;5110386;28;20218;-84
2022/04/24 11:18:44;;;;;;;1.47;1.30;;;10.60;99.90;;;;;;5073647;28;20191;-85
2022/04/24 11:21:10;;;;;;;1.50;1.40;;;10.60;99.90;;;;;;5081095;28;20296;-85
2022/04/24 11:23:40;;;;;;;3.67;1.40;;;10.60;99.90;;;;;;5085789;28;20203;-85
2022/04/24 11:26:09;;;;;;;2.77;2.30;;;10.60;99.90;;;;;;5100013;28;20202;-84
2022/04/24 11:28:45;;;;;;;1.37;1.33;;;10.60;99.90;;;;;;5103396;28;20167;-84
2022/04/24 11:31:13;;;;;;;1.20;1.20;;;10.50;99.90;;;;;;5102555;28;20270;-84
2022/04/24 11:33:56;;;;;;;1.67;1.47;;;10.50;99.90;;;;;;5088164;28;20266;-84
2022/04/24 11:36:32;;;;;;;2.30;1.40;;;10.40;99.90;;;;;;5084348;28;20199;-84
2022/04/24 11:39:04;;;;;;;2.97;2.53;;;10.40;99.90;;;;;;5085168;28;20242;-84
2022/04/24 11:41:31;;;;;;;1.37;1.27;;;10.50;99.90;;;;;;5108097;28;20179;-84
2022/04/24 11:52:24;;;;;;;1.70;1.60;;;10.50;99.90;;;;;;5093330;28;20274;-85
2022/04/24 11:54:51;;;;;;;1.73;1.63;;;10.60;99.90;;;;;;5085634;28;20689;-85
2022/04/24 11:57:18;;;;;;;1.87;1.50;;;10.60;99.90;;;;;;5086002;28;20184;-85
2022/04/24 11:59:57;;;;;;;1.43;1.33;;;10.70;99.90;;;;;;5096918;28;20192;-85
2022/04/24 12:02:27;;;;;;;2.00;1.90;;;10.70;99.90;;;;;;5108173;28;20242;-85
2022/04/24 12:04:54;;;;;;;1.90;1.80;;;10.70;99.90;;;;;;5080340;28;20231;-85
2022/04/24 12:07:21;;;;;;;3.00;2.67;;;10.70;99.90;;;;;;5100153;28;20183;-85
2022/04/24 12:09:58;;;;;;;4.57;3.50;;;10.70;99.90;;;;;;5084418;28;20206;-86
2022/04/24 12:12:24;;;;;;;1.87;1.77;;;10.80;99.90;;;;;;5098492;28;20238;-85
2022/04/24 12:14:51;;;;;;;1.90;1.80;;;10.80;99.90;;;;;;5110068;28;20210;-84
2022/04/24 12:17:18;;;;;;;3.20;1.83;;;10.80;99.90;;;;;;5116979;28;20183;-84
2022/04/24 12:20:03;;;;;;;6.13;5.33;;;10.70;99.90;;;;;;5115565;28;20212;-84
2022/04/24 12:22:37;;;;;;;1.80;1.70;;;10.70;99.90;;;;;;5086433;28;20198;-85
2022/04/24 12:25:15;;;;;;;5.27;4.77;;;10.80;99.90;;;;;;5099828;28;20239;-84
2022/04/24 12:27:55;;;;;;;2.07;1.93;;;10.80;99.90;;;;;;5075241;28;20236;-85
2022/04/24 12:30:21;;;;;;;2.60;2.13;;;10.80;99.90;;;;;;5073211;28;20242;-85
2022/04/24 12:32:47;;;;;;;2.17;1.97;;;10.80;99.90;;;;;;5098913;28;20187;-85
2022/04/24 12:35:30;;;;;;;4.00;3.40;;;10.80;99.90;;;;;;5080858;28;20613;-85
2022/04/24 12:37:59;;;;;;;2.83;2.00;;;10.90;99.90;;;;;;5094600;28;20205;-84
2022/04/24 12:40:25;;;;;;;2.63;2.43;;;10.90;99.90;;;;;;5097787;28;20265;-85
2022/04/24 12:42:52;;;;;;;2.83;2.47;;;10.90;99.90;;;;;;5092846;28;20226;-85
2022/04/24 12:45:20;;;;;;;3.77;3.33;;;10.80;99.90;;;;;;5098950;28;20858;-85
2022/04/24 12:47:46;;;;;;;3.23;2.93;;;10.90;99.90;;;;;;5095264;28;20201;-85
2022/04/24 12:50:12;;;;;;;3.77;2.20;;;10.90;99.90;;;;;;5090584;28;20581;-85